sensor_id;sensor_type;location;lat;lon;timestamp;pressure;altitude;pressure_sealevel;temperature;humidity
7918;BME280;4004;42.624;23.386;2023-05-22T00:02:04;93907.47;;;14.60;98.23
7918;BME280;4004;42.624;23.386;2023-05-22T00:04:31;93911.72;;;14.61;98.23
7918;BME280;4004;42.624;23.386;2023-05-22T00:06:58;93915.94;;;14.58;98.85
7918;BME280;4004;42.624;23.386;2023-05-22T00:09:25;93909.75;;;14.65;98.45
7918;BME280;4004;42.624;23.386;2023-05-22T00:11:53;93914.03;;;14.66;97.76
7918;BME280;4004;42.624;23.386;2023-05-22T00:14:19;93905.91;;;14.69;97.43
7918;BME280;4004;42.624;23.386;2023-05-22T00:16:46;93910.16;;;14.63;97.47
7918;BME280;4004;42.624;23.386;2023-05-22T00:19:14;93911.31;;;14.66;97.88
7918;BME280;4004;42.624;23.386;2023-05-22T00:21:42;93903.97;;;14.66;97.80
7918;BME280;4004;42.624;23.386;2023-05-22T00:24:09;93906.69;;;14.74;97.18
7918;BME280;4004;42.624;23.386;2023-05-22T00:26:36;93911.72;;;14.79;96.53
7918;BME280;4004;42.624;23.386;2023-05-22T00:29:04;93896.25;;;14.79;96.58
7918;BME280;4004;42.624;23.386;2023-05-22T00:31:31;93904.34;;;14.83;97.48
7918;BME280;4004;42.624;23.386;2023-05-22T00:33:58;93902.06;;;14.74;99.31
7918;BME280;4004;42.624;23.386;2023-05-22T00:36:25;93894.31;;;14.76;99.74
7918;BME280;4004;42.624;23.386;2023-05-22T00:38:51;93903.19;;;14.80;99.70
7918;BME280;4004;42.624;23.386;2023-05-22T00:41:18;93905.13;;;14.76;99.02
7918;BME280;4004;42.624;23.386;2023-05-22T00:43:46;93902.41;;;14.76;98.82
7918;BME280;4004;42.624;23.386;2023-05-22T00:46:14;93902.06;;;14.74;98.66
7918;BME280;4004;42.624;23.386;2023-05-22T00:48:45;93896.66;;;14.74;98.85
7918;BME280;4004;42.624;23.386;2023-05-22T00:51:12;93902.81;;;14.71;98.45
7918;BME280;4004;42.624;23.386;2023-05-22T00:53:39;93899.72;;;14.73;98.43
7918;BME280;4004;42.624;23.386;2023-05-22T00:56:06;93900.50;;;14.66;98.46
7918;BME280;4004;42.624;23.386;2023-05-22T00:58:33;93904.38;;;14.72;99.70
7918;BME280;4004;42.624;23.386;2023-05-22T01:01:00;93907.09;;;14.72;100.00
7918;BME280;4004;42.624;23.386;2023-05-22T01:03:28;93900.88;;;14.64;100.00
7918;BME280;4004;42.624;23.386;2023-05-22T01:05:56;93907.44;;;14.67;100.00
7918;BME280;4004;42.624;23.386;2023-05-22T01:08:23;93902.44;;;14.73;100.00
7918;BME280;4004;42.624;23.386;2023-05-22T01:10:54;93906.69;;;14.77;100.00
7918;BME280;4004;42.624;23.386;2023-05-22T01:13:28;93906.69;;;14.74;100.00
7918;BME280;4004;42.624;23.386;2023-05-22T01:16:02;93904.38;;;14.72;100.00
7918;BME280;4004;42.624;23.386;2023-05-22T01:18:36;93908.22;;;14.71;100.00
7918;BME280;4004;42.624;23.386;2023-05-22T01:21:10;93902.84;;;14.67;100.00
7918;BME280;4004;42.624;23.386;2023-05-22T01:23:54;93898.56;;;14.63;100.00
7918;BME280;4004;42.624;23.386;2023-05-22T01:26:42;93895.09;;;14.62;100.00
7918;BME280;4004;42.624;23.386;2023-05-22T01:29:29;93895.88;;;14.59;100.00
7918;BME280;4004;42.624;23.386;2023-05-22T01:31:59;93900.50;;;14.59;100.00
7918;BME280;4004;42.624;23.386;2023-05-22T01:34:27;93894.69;;;14.60;100.00
7918;BME280;4004;42.624;23.386;2023-05-22T01:36:56;93886.53;;;14.49;100.00
7918;BME280;4004;42.624;23.386;2023-05-22T01:39:23;93882.31;;;14.48;100.00
7918;BME280;4004;42.624;23.386;2023-05-22T01:41:51;93888.88;;;14.47;100.00
7918;BME280;4004;42.624;23.386;2023-05-22T01:44:17;93888.09;;;14.40;100.00
7918;BME280;4004;42.624;23.386;2023-05-22T01:46:44;93889.25;;;14.35;100.00
7918;BME280;4004;42.624;23.386;2023-05-22T01:49:12;93886.94;;;14.37;100.00
7918;BME280;4004;42.624;23.386;2023-05-22T01:51:48;93886.94;;;14.30;100.00
7918;BME280;4004;42.624;23.386;2023-05-22T01:54:22;93883.44;;;14.26;100.00
7918;BME280;4004;42.624;23.386;2023-05-22T01:56:52;93886.50;;;14.24;100.00
7918;BME280;4004;42.624;23.386;2023-05-22T01:59:25;93882.25;;;14.20;100.00
7918;BME280;4004;42.624;23.386;2023-05-22T02:01:57;93878.00;;;14.22;100.00
7918;BME280;4004;42.624;23.386;2023-05-22T02:04:29;93878.41;;;14.21;100.00
7918;BME280;4004;42.624;23.386;2023-05-22T02:06:58;93881.13;;;14.21;100.00
7918;BME280;4004;42.624;23.386;2023-05-22T02:09:27;93883.03;;;14.20;100.00
7918;BME280;4004;42.624;23.386;2023-05-22T02:11:54;93890.00;;;14.14;100.00
7918;BME280;4004;42.624;23.386;2023-05-22T02:14:21;93888.44;;;14.17;100.00
7918;BME280;4004;42.624;23.386;2023-05-22T02:16:48;93881.44;;;14.05;100.00
7918;BME280;4004;42.624;23.386;2023-05-22T02:19:15;93891.09;;;13.99;100.00
7918;BME280;4004;42.624;23.386;2023-05-22T02:21:43;93887.25;;;13.96;100.00
7918;BME280;4004;42.624;23.386;2023-05-22T02:24:10;93884.13;;;13.83;100.00
7918;BME280;4004;42.624;23.386;2023-05-22T02:26:37;93893.34;;;13.79;100.00
7918;BME280;4004;42.624;23.386;2023-05-22T02:29:05;93887.91;;;13.72;100.00
7918;BME280;4004;42.624;23.386;2023-05-22T02:31:31;93888.69;;;13.68;100.00
7918;BME280;4004;42.624;23.386;2023-05-22T02:33:58;93892.50;;;13.60;100.00
7918;BME280;4004;42.624;23.386;2023-05-22T02:36:25;93887.88;;;13.57;100.00
7918;BME280;4004;42.624;23.386;2023-05-22T02:38:53;93888.97;;;13.49;100.00
7918;BME280;4004;42.624;23.386;2023-05-22T02:41:21;93885.88;;;13.47;100.00
7918;BME280;4004;42.624;23.386;2023-05-22T02:43:48;93888.56;;;13.47;100.00
7918;BME280;4004;42.624;23.386;2023-05-22T02:46:15;93891.66;;;13.42;100.00
7918;BME280;4004;42.624;23.386;2023-05-22T02:48:42;93890.50;;;13.43;100.00
7918;BME280;4004;42.624;23.386;2023-05-22T02:51:09;93884.31;;;13.39;100.00
7918;BME280;4004;42.624;23.386;2023-05-22T02:53:36;93885.06;;;13.32;100.00
7918;BME280;4004;42.624;23.386;2023-05-22T02:56:06;93879.25;;;13.34;100.00
7918;BME280;4004;42.624;23.386;2023-05-22T02:58:35;93883.53;;;13.35;100.00
7918;BME280;4004;42.624;23.386;2023-05-22T03:01:01;93886.97;;;13.32;100.00
7918;BME280;4004;42.624;23.386;2023-05-22T03:03:30;93879.97;;;13.23;100.00
7918;BME280;4004;42.624;23.386;2023-05-22T03:05:58;93881.56;;;13.32;100.00
7918;BME280;4004;42.624;23.386;2023-05-22T03:08:26;93877.69;;;13.29;100.00
7918;BME280;4004;42.624;23.386;2023-05-22T03:10:54;93872.22;;;13.22;100.00
7918;BME280;4004;42.624;23.386;2023-05-22T03:13:22;93887.28;;;13.26;100.00
7918;BME280;4004;42.624;23.386;2023-05-22T03:15:49;93887.03;;;13.39;100.00
7918;BME280;4004;42.624;23.386;2023-05-22T03:18:16;93884.75;;;13.52;100.00
7918;BME280;4004;42.624;23.386;2023-05-22T03:20:42;93880.56;;;13.68;100.00
7918;BME280;4004;42.624;23.386;2023-05-22T03:23:10;93890.28;;;13.84;100.00
7918;BME280;4004;42.624;23.386;2023-05-22T03:25:36;93887.59;;;13.91;100.00
7918;BME280;4004;42.624;23.386;2023-05-22T03:28:03;93882.56;;;13.86;100.00
7918;BME280;4004;42.624;23.386;2023-05-22T03:30:31;93884.09;;;13.76;100.00
7918;BME280;4004;42.624;23.386;2023-05-22T03:32:58;93887.16;;;13.78;100.00
7918;BME280;4004;42.624;23.386;2023-05-22T03:35:25;93896.84;;;13.83;100.00
7918;BME280;4004;42.624;23.386;2023-05-22T03:37:52;93887.25;;;13.96;100.00
7918;BME280;4004;42.624;23.386;2023-05-22T03:40:19;93886.16;;;14.40;100.00
7918;BME280;4004;42.624;23.386;2023-05-22T03:42:45;93889.66;;;15.05;100.00
7918;BME280;4004;42.624;23.386;2023-05-22T03:45:13;93894.13;;;15.84;94.14
7918;BME280;4004;42.624;23.386;2023-05-22T03:47:41;93898.34;;;16.58;87.57
7918;BME280;4004;42.624;23.386;2023-05-22T03:50:09;93903.59;;;17.29;80.76
7918;BME280;4004;42.624;23.386;2023-05-22T03:52:36;93901.16;;;17.76;75.60
7918;BME280;4004;42.624;23.386;2023-05-22T03:55:03;93901.78;;;18.52;70.79
7918;BME280;4004;42.624;23.386;2023-05-22T03:57:30;93908.13;;;19.20;66.37
7918;BME280;4004;42.624;23.386;2023-05-22T03:59:57;93911.38;;;19.35;64.38
7918;BME280;4004;42.624;23.386;2023-05-22T04:02:30;93912.00;;;19.42;64.25
7918;BME280;4004;42.624;23.386;2023-05-22T04:04:58;93919.69;;;19.71;62.99
7918;BME280;4004;42.624;23.386;2023-05-22T04:07:25;93911.88;;;19.50;62.01
7918;BME280;4004;42.624;23.386;2023-05-22T04:09:52;93917.69;;;19.75;60.16
7918;BME280;4004;42.624;23.386;2023-05-22T04:12:18;93918.03;;;19.97;58.05
7918;BME280;4004;42.624;23.386;2023-05-22T04:14:45;93913.28;;;20.01;57.96
7918;BME280;4004;42.624;23.386;2023-05-22T04:17:12;93917.94;;;20.77;56.43
7918;BME280;4004;42.624;23.386;2023-05-22T04:19:39;93917.22;;;21.55;53.84
7918;BME280;4004;42.624;23.386;2023-05-22T04:22:07;93913.63;;;21.87;52.28
7918;BME280;4004;42.624;23.386;2023-05-22T04:24:33;93914.34;;;22.97;50.43
7918;BME280;4004;42.624;23.386;2023-05-22T04:27:00;93917.94;;;24.25;47.68
7918;BME280;4004;42.624;23.386;2023-05-22T04:29:27;93916.16;;;25.52;44.42
7918;BME280;4004;42.624;23.386;2023-05-22T04:31:54;93920.94;;;26.35;42.21
7918;BME280;4004;42.624;23.386;2023-05-22T04:34:20;93924.44;;;26.44;41.93
7918;BME280;4004;42.624;23.386;2023-05-22T04:36:48;93926.72;;;26.64;41.69
7918;BME280;4004;42.624;23.386;2023-05-22T04:39:16;93939.28;;;27.41;40.34
7918;BME280;4004;42.624;23.386;2023-05-22T04:41:43;93930.16;;;27.74;39.73
7918;BME280;4004;42.624;23.386;2023-05-22T04:44:10;93928.31;;;28.19;38.77
7918;BME280;4004;42.624;23.386;2023-05-22T04:46:36;93924.69;;;28.13;38.34
7918;BME280;4004;42.624;23.386;2023-05-22T04:49:03;93922.13;;;28.39;37.17
7918;BME280;4004;42.624;23.386;2023-05-22T04:51:30;93924.13;;;28.98;36.59
7918;BME280;4004;42.624;23.386;2023-05-22T04:53:57;93933.94;;;29.49;35.95
7918;BME280;4004;42.624;23.386;2023-05-22T04:56:25;93927.75;;;29.75;35.25
7918;BME280;4004;42.624;23.386;2023-05-22T04:58:52;93934.44;;;30.09;34.68
7918;BME280;4004;42.624;23.386;2023-05-22T05:01:20;93936.56;;;30.67;32.99
7918;BME280;4004;42.624;23.386;2023-05-22T05:03:47;93935.06;;;31.29;32.00
7918;BME280;4004;42.624;23.386;2023-05-22T05:06:13;93936.88;;;31.38;31.08
7918;BME280;4004;42.624;23.386;2023-05-22T05:08:41;93931.00;;;31.25;30.87
7918;BME280;4004;42.624;23.386;2023-05-22T05:11:08;93932.84;;;31.02;30.61
7918;BME280;4004;42.624;23.386;2023-05-22T05:13:37;93935.81;;;30.40;31.76
7918;BME280;4004;42.624;23.386;2023-05-22T05:16:04;93940.38;;;29.61;32.44
7918;BME280;4004;42.624;23.386;2023-05-22T05:18:31;93949.31;;;30.06;31.63
7918;BME280;4004;42.624;23.386;2023-05-22T05:20:57;93945.81;;;30.58;31.85
7918;BME280;4004;42.624;23.386;2023-05-22T05:23:24;93951.50;;;31.33;30.68
7918;BME280;4004;42.624;23.386;2023-05-22T05:25:51;93942.25;;;31.96;29.96
7918;BME280;4004;42.624;23.386;2023-05-22T05:28:18;93938.31;;;31.65;28.72
7918;BME280;4004;42.624;23.386;2023-05-22T05:30:46;93940.97;;;31.91;28.37
7918;BME280;4004;42.624;23.386;2023-05-22T05:33:13;93947.88;;;31.53;28.81
7918;BME280;4004;42.624;23.386;2023-05-22T05:35:40;93947.59;;;31.51;28.73
7918;BME280;4004;42.624;23.386;2023-05-22T05:38:07;93958.75;;;32.05;27.66
7918;BME280;4004;42.624;23.386;2023-05-22T05:40:34;93954.50;;;32.15;26.96
7918;BME280;4004;42.624;23.386;2023-05-22T05:43:00;93951.28;;;32.45;27.07
7918;BME280;4004;42.624;23.386;2023-05-22T05:45:27;93954.50;;;32.15;27.34
7918;BME280;4004;42.624;23.386;2023-05-22T05:47:56;93952.59;;;31.90;27.18
7918;BME280;4004;42.624;23.386;2023-05-22T05:50:23;93947.69;;;31.30;28.52
7918;BME280;4004;42.624;23.386;2023-05-22T05:52:49;93957.88;;;31.82;28.03
7918;BME280;4004;42.624;23.386;2023-05-22T05:55:16;93947.44;;;30.96;28.53
7918;BME280;4004;42.624;23.386;2023-05-22T05:57:43;93952.47;;;29.99;29.40
7918;BME280;4004;42.624;23.386;2023-05-22T06:00:10;93949.72;;;30.46;29.42
7918;BME280;4004;42.624;23.386;2023-05-22T06:02:37;93953.78;;;29.83;30.14
7918;BME280;4004;42.624;23.386;2023-05-22T06:05:06;93957.97;;;29.58;30.71
7918;BME280;4004;42.624;23.386;2023-05-22T06:07:33;93949.28;;;29.30;30.88
7918;BME280;4004;42.624;23.386;2023-05-22T06:10:03;93952.34;;;30.08;30.04
7918;BME280;4004;42.624;23.386;2023-05-22T06:12:29;93946.56;;;30.32;28.79
7918;BME280;4004;42.624;23.386;2023-05-22T06:14:56;93948.38;;;31.19;27.92
7918;BME280;4004;42.624;23.386;2023-05-22T06:17:23;93956.75;;;31.63;27.84
7918;BME280;4004;42.624;23.386;2023-05-22T06:19:50;93965.06;;;31.25;27.34
7918;BME280;4004;42.624;23.386;2023-05-22T06:22:18;93952.03;;;30.47;27.83
7918;BME280;4004;42.624;23.386;2023-05-22T06:24:45;93954.81;;;30.27;29.03
7918;BME280;4004;42.624;23.386;2023-05-22T06:27:12;93957.72;;;30.38;28.38
7918;BME280;4004;42.624;23.386;2023-05-22T06:29:39;93958.44;;;29.71;28.47
7918;BME280;4004;42.624;23.386;2023-05-22T06:32:06;93952.69;;;29.40;28.94
7918;BME280;4004;42.624;23.386;2023-05-22T06:34:33;93956.06;;;28.99;30.05
7918;BME280;4004;42.624;23.386;2023-05-22T06:37:00;93957.25;;;28.63;31.00
7918;BME280;4004;42.624;23.386;2023-05-22T06:39:29;93953.19;;;27.47;32.52
7918;BME280;4004;42.624;23.386;2023-05-22T06:41:56;93948.59;;;26.50;33.48
7918;BME280;4004;42.624;23.386;2023-05-22T06:44:22;93952.38;;;25.32;35.22
7918;BME280;4004;42.624;23.386;2023-05-22T06:46:50;93945.78;;;24.89;36.19
7918;BME280;4004;42.624;23.386;2023-05-22T06:49:16;93943.66;;;25.34;35.99
7918;BME280;4004;42.624;23.386;2023-05-22T06:51:44;93944.94;;;25.79;35.76
7918;BME280;4004;42.624;23.386;2023-05-22T06:54:10;93943.00;;;26.07;35.27
7918;BME280;4004;42.624;23.386;2023-05-22T06:56:39;93941.75;;;26.26;34.77
7918;BME280;4004;42.624;23.386;2023-05-22T06:59:07;93945.59;;;25.92;35.22
7918;BME280;4004;42.624;23.386;2023-05-22T07:01:33;93945.09;;;25.57;34.97
7918;BME280;4004;42.624;23.386;2023-05-22T07:04:01;93944.00;;;25.05;35.85
7918;BME280;4004;42.624;23.386;2023-05-22T07:06:29;93945.47;;;24.87;36.14
7918;BME280;4004;42.624;23.386;2023-05-22T07:08:58;93945.19;;;24.63;36.49
7918;BME280;4004;42.624;23.386;2023-05-22T07:11:24;93947.69;;;24.70;37.24
7918;BME280;4004;42.624;23.386;2023-05-22T07:13:53;93945.34;;;24.37;35.67
7918;BME280;4004;42.624;23.386;2023-05-22T07:16:20;93948.00;;;23.84;35.94
7918;BME280;4004;42.624;23.386;2023-05-22T07:18:47;93941.00;;;23.70;36.46
7918;BME280;4004;42.624;23.386;2023-05-22T07:21:14;93932.25;;;23.97;38.25
7918;BME280;4004;42.624;23.386;2023-05-22T07:23:41;93932.56;;;24.22;39.16
7918;BME280;4004;42.624;23.386;2023-05-22T07:26:08;93940.16;;;23.95;39.54
7918;BME280;4004;42.624;23.386;2023-05-22T07:28:34;93943.13;;;23.53;40.40
7918;BME280;4004;42.624;23.386;2023-05-22T07:31:03;93949.38;;;23.54;40.84
7918;BME280;4004;42.624;23.386;2023-05-22T07:33:29;93945.78;;;23.44;39.57
7918;BME280;4004;42.624;23.386;2023-05-22T07:35:56;93939.06;;;23.58;39.11
7918;BME280;4004;42.624;23.386;2023-05-22T07:38:23;93941.81;;;23.58;39.39
7918;BME280;4004;42.624;23.386;2023-05-22T07:40:49;93935.78;;;23.50;39.99
7918;BME280;4004;42.624;23.386;2023-05-22T07:43:16;93949.47;;;23.63;40.80
7918;BME280;4004;42.624;23.386;2023-05-22T07:45:43;93934.56;;;23.51;39.99
7918;BME280;4004;42.624;23.386;2023-05-22T07:48:11;93941.09;;;23.32;40.55
7918;BME280;4004;42.624;23.386;2023-05-22T07:50:38;93942.66;;;22.94;41.20
7918;BME280;4004;42.624;23.386;2023-05-22T07:53:09;93941.09;;;22.93;41.87
7918;BME280;4004;42.624;23.386;2023-05-22T07:58:02;93940.53;;;22.60;44.37
7918;BME280;4004;42.624;23.386;2023-05-22T08:00:29;93930.59;;;22.79;44.06
7918;BME280;4004;42.624;23.386;2023-05-22T08:02:56;93932.66;;;22.75;42.96
7918;BME280;4004;42.624;23.386;2023-05-22T08:05:24;93945.13;;;22.63;43.37
7918;BME280;4004;42.624;23.386;2023-05-22T08:07:51;93931.00;;;22.65;44.46
7918;BME280;4004;42.624;23.386;2023-05-22T08:10:18;93936.59;;;22.87;43.11
7918;BME280;4004;42.624;23.386;2023-05-22T08:12:44;93932.44;;;22.69;43.97
7918;BME280;4004;42.624;23.386;2023-05-22T08:15:11;93928.09;;;23.10;43.46
7918;BME280;4004;42.624;23.386;2023-05-22T08:17:38;93936.97;;;23.62;42.74
7918;BME280;4004;42.624;23.386;2023-05-22T08:20:06;93931.78;;;22.91;42.47
7918;BME280;4004;42.624;23.386;2023-05-22T08:22:35;93928.16;;;22.68;42.86
7918;BME280;4004;42.624;23.386;2023-05-22T08:25:02;93931.31;;;22.41;43.48
7918;BME280;4004;42.624;23.386;2023-05-22T08:27:29;93941.97;;;22.10;43.77
7918;BME280;4004;42.624;23.386;2023-05-22T08:29:56;93931.69;;;21.85;46.14
7918;BME280;4004;42.624;23.386;2023-05-22T08:32:23;93925.72;;;21.73;44.90
7918;BME280;4004;42.624;23.386;2023-05-22T08:34:49;93923.28;;;21.92;45.76
7918;BME280;4004;42.624;23.386;2023-05-22T08:37:16;93924.00;;;21.80;47.50
7918;BME280;4004;42.624;23.386;2023-05-22T08:39:44;93937.16;;;21.85;43.75
7918;BME280;4004;42.624;23.386;2023-05-22T08:42:11;93924.75;;;21.80;41.85
7918;BME280;4004;42.624;23.386;2023-05-22T08:44:38;93941.19;;;21.80;43.93
7918;BME280;4004;42.624;23.386;2023-05-22T08:47:06;93926.00;;;21.63;41.09
7918;BME280;4004;42.624;23.386;2023-05-22T08:49:36;93921.47;;;21.72;41.46
7918;BME280;4004;42.624;23.386;2023-05-22T08:52:08;93925.78;;;21.86;41.85
7918;BME280;4004;42.624;23.386;2023-05-22T08:54:39;93926.13;;;21.88;41.88
7918;BME280;4004;42.624;23.386;2023-05-22T08:57:08;93917.00;;;22.08;43.50
7918;BME280;4004;42.624;23.386;2023-05-22T08:59:38;93922.50;;;21.62;40.74
7918;BME280;4004;42.624;23.386;2023-05-22T09:02:06;93933.03;;;21.64;40.16
7918;BME280;4004;42.624;23.386;2023-05-22T09:04:33;93916.00;;;21.56;40.61
7918;BME280;4004;42.624;23.386;2023-05-22T09:07:00;93913.34;;;21.69;40.07
7918;BME280;4004;42.624;23.386;2023-05-22T09:09:30;93930.25;;;21.80;41.47
7918;BME280;4004;42.624;23.386;2023-05-22T09:11:58;93924.75;;;21.80;42.25
7918;BME280;4004;42.624;23.386;2023-05-22T09:14:27;93923.88;;;21.70;40.51
7918;BME280;4004;42.624;23.386;2023-05-22T09:16:53;93938.69;;;21.57;40.93
7918;BME280;4004;42.624;23.386;2023-05-22T09:19:20;93918.59;;;21.63;39.73
7918;BME280;4004;42.624;23.386;2023-05-22T09:21:47;93917.53;;;21.73;41.28
7918;BME280;4004;42.624;23.386;2023-05-22T09:24:15;93911.34;;;21.99;39.72
7918;BME280;4004;42.624;23.386;2023-05-22T09:26:41;93926.31;;;21.81;39.37
7918;BME280;4004;42.624;23.386;2023-05-22T09:29:08;93928.22;;;21.68;40.25
7918;BME280;4004;42.624;23.386;2023-05-22T09:31:43;93921.88;;;21.42;38.25
7918;BME280;4004;42.624;23.386;2023-05-22T09:34:10;93924.84;;;21.31;40.89
7918;BME280;4004;42.624;23.386;2023-05-22T09:36:38;93914.25;;;21.33;41.84
7918;BME280;4004;42.624;23.386;2023-05-22T09:39:05;93926.97;;;21.40;40.73
7918;BME280;4004;42.624;23.386;2023-05-22T09:41:35;93919.22;;;21.22;39.81
7918;BME280;4004;42.624;23.386;2023-05-22T09:44:12;93926.13;;;21.10;40.46
7918;BME280;4004;42.624;23.386;2023-05-22T09:46:40;93916.97;;;21.00;39.80
7918;BME280;4004;42.624;23.386;2023-05-22T09:49:08;93928.38;;;20.99;40.66
7918;BME280;4004;42.624;23.386;2023-05-22T09:51:35;93930.81;;;20.93;40.47
7918;BME280;4004;42.624;23.386;2023-05-22T09:54:06;93928.41;;;20.62;40.42
7918;BME280;4004;42.624;23.386;2023-05-22T09:56:35;93918.53;;;20.48;40.24
7918;BME280;4004;42.624;23.386;2023-05-22T09:59:02;93918.69;;;20.61;40.17
7918;BME280;4004;42.624;23.386;2023-05-22T10:01:32;93929.09;;;20.83;40.15
7918;BME280;4004;42.624;23.386;2023-05-22T10:04:01;93917.00;;;20.84;40.37
7918;BME280;4004;42.624;23.386;2023-05-22T10:06:30;93916.31;;;20.80;41.12
7918;BME280;4004;42.624;23.386;2023-05-22T10:09:02;93917.50;;;20.95;41.40
7918;BME280;4004;42.624;23.386;2023-05-22T10:11:30;93910.94;;;20.93;40.34
7918;BME280;4004;42.624;23.386;2023-05-22T10:13:58;93917.84;;;20.97;41.47
7918;BME280;4004;42.624;23.386;2023-05-22T10:16:26;93912.22;;;20.88;40.92
7918;BME280;4004;42.624;23.386;2023-05-22T10:18:54;93914.84;;;20.75;42.04
7918;BME280;4004;42.624;23.386;2023-05-22T10:21:21;93914.50;;;20.57;43.30
7918;BME280;4004;42.624;23.386;2023-05-22T10:23:50;93920.34;;;20.55;41.37
7918;BME280;4004;42.624;23.386;2023-05-22T10:26:18;93914.41;;;20.60;42.15
7918;BME280;4004;42.624;23.386;2023-05-22T10:28:50;93910.56;;;20.58;41.84
7918;BME280;4004;42.624;23.386;2023-05-22T10:31:26;93914.50;;;20.57;41.40
7918;BME280;4004;42.624;23.386;2023-05-22T10:33:58;93939.28;;;20.26;48.24
7918;BME280;4004;42.624;23.386;2023-05-22T10:36:33;93945.81;;;19.72;51.85
7918;BME280;4004;42.624;23.386;2023-05-22T10:39:13;93940.81;;;19.20;60.86
7918;BME280;4004;42.624;23.386;2023-05-22T10:41:42;93926.44;;;18.65;66.89
7918;BME280;4004;42.624;23.386;2023-05-22T10:44:09;93916.88;;;18.57;72.95
7918;BME280;4004;42.624;23.386;2023-05-22T10:46:36;93913.03;;;18.54;78.54
7918;BME280;4004;42.624;23.386;2023-05-22T10:49:02;93920.13;;;18.72;72.74
7918;BME280;4004;42.624;23.386;2023-05-22T10:51:31;93919.06;;;18.93;65.79
7918;BME280;4004;42.624;23.386;2023-05-22T10:53:59;93909.25;;;19.22;70.95
7918;BME280;4004;42.624;23.386;2023-05-22T10:56:33;93910.00;;;19.70;73.67
7918;BME280;4004;42.624;23.386;2023-05-22T10:59:01;93903.97;;;19.99;71.93
7918;BME280;4004;42.624;23.386;2023-05-22T11:01:31;93902.78;;;20.36;66.90
7918;BME280;4004;42.624;23.386;2023-05-22T11:04:08;93900.66;;;20.64;65.08
7918;BME280;4004;42.624;23.386;2023-05-22T11:06:36;93907.06;;;20.74;65.54
7918;BME280;4004;42.624;23.386;2023-05-22T11:09:26;93900.84;;;20.73;61.20
7918;BME280;4004;42.624;23.386;2023-05-22T11:12:15;93892.47;;;20.64;62.13
7918;BME280;4004;42.624;23.386;2023-05-22T11:14:47;93903.75;;;20.66;63.72
7918;BME280;4004;42.624;23.386;2023-05-22T11:17:16;93940.97;;;20.20;59.24
7918;BME280;4004;42.624;23.386;2023-05-22T11:19:47;93932.66;;;19.43;58.34
7918;BME280;4004;42.624;23.386;2023-05-22T11:22:16;93935.09;;;18.87;58.77
7918;BME280;4004;42.624;23.386;2023-05-22T11:24:43;93941.31;;;18.60;58.77
7918;BME280;4004;42.624;23.386;2023-05-22T11:27:10;93939.41;;;18.30;52.15
7918;BME280;4004;42.624;23.386;2023-05-22T11:29:39;93953.88;;;17.89;52.65
7918;BME280;4004;42.624;23.386;2023-05-22T11:32:09;94000.69;;;17.66;54.13
7918;BME280;4004;42.624;23.386;2023-05-22T11:34:40;93976.06;;;17.43;55.97
7918;BME280;4004;42.624;23.386;2023-05-22T11:37:06;93982.84;;;17.20;56.77
7918;BME280;4004;42.624;23.386;2023-05-22T11:39:34;93978.38;;;16.95;60.17
7918;BME280;4004;42.624;23.386;2023-05-22T11:42:00;93975.88;;;16.60;67.70
7918;BME280;4004;42.624;23.386;2023-05-22T11:44:28;93974.09;;;16.28;77.24
7918;BME280;4004;42.624;23.386;2023-05-22T11:46:57;93989.28;;;16.11;80.22
7918;BME280;4004;42.624;23.386;2023-05-22T11:49:23;93952.59;;;15.70;89.11
7918;BME280;4004;42.624;23.386;2023-05-22T11:51:51;93975.06;;;15.74;100.00
7918;BME280;4004;42.624;23.386;2023-05-22T11:54:17;93966.19;;;15.49;96.42
7918;BME280;4004;42.624;23.386;2023-05-22T11:56:44;93955.38;;;15.42;100.00
7918;BME280;4004;42.624;23.386;2023-05-22T11:59:11;93955.75;;;15.40;98.29
7918;BME280;4004;42.624;23.386;2023-05-22T12:01:38;93932.53;;;15.50;100.00
7918;BME280;4004;42.624;23.386;2023-05-22T12:04:06;93940.63;;;15.71;100.00
7918;BME280;4004;42.624;23.386;2023-05-22T12:06:33;93970.41;;;15.71;90.35
7918;BME280;4004;42.624;23.386;2023-05-22T12:09:00;93964.16;;;15.96;96.78
7918;BME280;4004;42.624;23.386;2023-05-22T12:11:27;93964.06;;;16.17;100.00
7918;BME280;4004;42.624;23.386;2023-05-22T12:13:59;93952.00;;;16.33;100.00
7918;BME280;4004;42.624;23.386;2023-05-22T12:16:26;93955.38;;;16.51;100.00
7918;BME280;4004;42.624;23.386;2023-05-22T12:18:53;93957.53;;;16.78;100.00
7918;BME280;4004;42.624;23.386;2023-05-22T12:21:21;93959.34;;;16.99;100.00
7918;BME280;4004;42.624;23.386;2023-05-22T12:23:48;93958.78;;;17.18;99.99
7918;BME280;4004;42.624;23.386;2023-05-22T12:26:15;93953.53;;;17.46;100.00
7918;BME280;4004;42.624;23.386;2023-05-22T12:28:42;93953.66;;;17.69;100.00
7918;BME280;4004;42.624;23.386;2023-05-22T12:31:09;93948.06;;;17.87;100.00
7918;BME280;4004;42.624;23.386;2023-05-22T12:33:38;93939.34;;;18.03;100.00
7918;BME280;4004;42.624;23.386;2023-05-22T12:36:07;93941.22;;;18.10;100.00
7918;BME280;4004;42.624;23.386;2023-05-22T12:38:36;93942.31;;;18.43;100.00
7918;BME280;4004;42.624;23.386;2023-05-22T12:41:03;93933.19;;;18.57;93.62
7918;BME280;4004;42.624;23.386;2023-05-22T12:43:30;93934.84;;;18.78;94.79
7918;BME280;4004;42.624;23.386;2023-05-22T12:45:56;93937.09;;;18.83;94.18
7918;BME280;4004;42.624;23.386;2023-05-22T12:48:24;93933.50;;;19.17;93.03
7918;BME280;4004;42.624;23.386;2023-05-22T12:50:51;93926.84;;;19.41;91.13
7918;BME280;4004;42.624;23.386;2023-05-22T12:53:18;93923.03;;;19.59;90.71
7918;BME280;4004;42.624;23.386;2023-05-22T12:55:46;93927.34;;;19.56;83.14
7918;BME280;4004;42.624;23.386;2023-05-22T12:58:13;93928.75;;;19.64;80.01
7918;BME280;4004;42.624;23.386;2023-05-22T13:00:40;93930.91;;;19.77;78.44
7918;BME280;4004;42.624;23.386;2023-05-22T13:03:07;93930.34;;;19.85;78.23
7918;BME280;4004;42.624;23.386;2023-05-22T13:05:33;93929.00;;;19.94;75.63
7918;BME280;4004;42.624;23.386;2023-05-22T13:08:00;93924.53;;;20.03;75.13
7918;BME280;4004;42.624;23.386;2023-05-22T13:10:27;93923.13;;;20.15;71.77
7918;BME280;4004;42.624;23.386;2023-05-22T13:12:56;93926.94;;;20.01;66.91
7918;BME280;4004;42.624;23.386;2023-05-22T13:15:23;93924.31;;;20.14;64.20